^^
Grace C. Lehan Memorial Weather Station Historical Data
Daily Summary for October 07, 2022 Units:  English    Metric   Both
Daily Weekly Monthly Yearly
  High: Low: Average:
Temperature: 77.5 °F 54.6 °F 65.3 °F
Dew Point: 63 °F 44.8 °F 55.7 °F
Humidity: 96% 43.3% 74%
Wind Speed: 2mph 0mph 0.3mph
Wind Gust: 15mph - -
Wind- - West
Pressure: 30.01 in 29.83 in -
Precipitation: 0.00 in    
 
 
Tabular Data for October 07, 2022
Time Temperature Dew Point Pressure Wind Wind Speed Wind Gust Humidity Rainfall Rate (Hourly) solar
00:04 57.1 °F 54.8 °F 29.91 in Calm     92% 0.00 in 0 W/m2
00:09 57.1 °F 54.8 °F 29.91 in Calm     92% 0.00 in 0 W/m2
00:14 57.1 °F 54.8 °F 29.91 in Calm     92% 0.00 in 0 W/m2
00:19 57.1 °F 54.8 °F 29.91 in Calm     92% 0.00 in 0 W/m2
00:24 57.1 °F 55.1 °F 29.91 in Calm     93% 0.00 in 0 W/m2
00:29 57.2 °F 55.2 °F 29.91 in Calm     93% 0.00 in 0 W/m2
00:34 57.3 °F 55.3 °F 29.91 in Calm     93% 0.00 in 0 W/m2
00:39 57.4 °F 55.4 °F 29.91 in Calm     93% 0.00 in 0 W/m2
00:44 57.4 °F 55.4 °F 29.90 in Calm     93% 0.00 in 0 W/m2
00:49 57.4 °F 55.4 °F 29.90 in Calm     93% 0.00 in 0 W/m2
00:54 57.4 °F 55.4 °F 29.90 in Calm     93% 0.00 in 0 W/m2
00:59 57.4 °F 55.4 °F 29.90 in Calm     93% 0.00 in 0 W/m2
01:04 57.4 °F 55.4 °F 29.90 in Calm     93% 0.00 in 0 W/m2
01:09 57.3 °F 55.3 °F 29.90 in Calm     93% 0.00 in 0 W/m2
01:14 57.3 °F 55.3 °F 29.90 in Calm     93% 0.00 in 0 W/m2
01:19 57.3 °F 55.3 °F 29.90 in Calm     93% 0.00 in 0 W/m2
01:24 57.3 °F 55.3 °F 29.90 in Calm     93% 0.00 in 0 W/m2
01:29 57.4 °F 55.4 °F 29.90 in Calm     93% 0.00 in 0 W/m2
01:34 57.4 °F 55.4 °F 29.90 in Calm     93% 0.00 in 0 W/m2
01:39 57.3 °F 55.3 °F 29.90 in Calm     93% 0.00 in 0 W/m2
01:44 57.3 °F 55.3 °F 29.90 in Calm     93% 0.00 in 0 W/m2
01:49 57.2 °F 55.2 °F 29.90 in Calm     93% 0.00 in 0 W/m2
01:54 57 °F 55 °F 29.90 in Calm     93% 0.00 in 0 W/m2
01:59 56.9 °F 54.9 °F 29.90 in Calm     93% 0.00 in 0 W/m2
02:04 56.8 °F 54.8 °F 29.90 in Calm     93% 0.00 in 0 W/m2
02:09 56.7 °F 54.7 °F 29.90 in Calm     93% 0.00 in 0 W/m2
02:14 56.6 °F 54.6 °F 29.90 in Calm     93% 0.00 in 0 W/m2
02:19 56.6 °F 54.6 °F 29.90 in Calm     93% 0.00 in 0 W/m2
02:24 56.5 °F 54.5 °F 29.90 in Calm     93% 0.00 in 0 W/m2
02:29 56.4 °F 54.4 °F 29.90 in Calm     93% 0.00 in 0 W/m2
02:34 56.4 °F 54.4 °F 29.90 in Calm     93% 0.00 in 0 W/m2
02:39 56.3 °F 54.3 °F 29.90 in Calm     93% 0.00 in 0 W/m2
02:40 56.3 °F 54.3 °F 29.89 in Calm     93% 0.00 in 0 W/m2
03:00 56.1 °F 54.4 °F 29.89 in Calm     94% 0.00 in 0 W/m2
03:30 55.7 °F 54 °F 29.89 in Calm     94% 0.00 in 0 W/m2
04:04 55.3 °F 53.6 °F 29.89 in Calm     94% 0.00 in 0 W/m2
04:09 55.3 °F 53.6 °F 29.89 in Calm     94% 0.00 in 0 W/m2
04:14 55.3 °F 53.6 °F 29.89 in Calm     94% 0.00 in 0 W/m2
04:19 55.2 °F 53.5 °F 29.89 in Calm     94% 0.00 in 0 W/m2
04:24 55.1 °F 53.4 °F 29.89 in Calm     94% 0.00 in 0 W/m2
04:29 54.9 °F 53.2 °F 29.88 in Calm     94% 0.00 in 0 W/m2
04:34 54.8 °F 53.1 °F 29.89 in Calm     94% 0.00 in 0 W/m2
04:39 54.8 °F 53.1 °F 29.89 in Calm     94% 0.00 in 0 W/m2
04:44 54.8 °F 53.1 °F 29.89 in Calm     94% 0.00 in 0 W/m2
04:49 54.8 °F 53.1 °F 29.89 in Calm     94% 0.00 in 0 W/m2
04:54 54.8 °F 53.1 °F 29.89 in Calm     94% 0.00 in 0 W/m2
04:59 54.7 °F 53 °F 29.89 in Calm     94% 0.00 in 0 W/m2
05:04 54.6 °F 52.9 °F 29.89 in Calm     94% 0.00 in 0 W/m2
05:09 54.6 °F 53 °F 29.89 in Calm     94.3% 0.00 in 0 W/m2
05:14 54.6 °F 53.2 °F 29.89 in Calm     95% 0.00 in 0 W/m2
05:19 54.7 °F 53.3 °F 29.89 in Calm     95% 0.00 in 0 W/m2
05:30 54.7 °F 53.3 °F 29.89 in Calm     95% 0.00 in 0 W/m2
06:00 54.8 °F 53.4 °F 29.90 in Calm     95% 0.00 in 0 W/m2
07:00 54.9 °F 53.5 °F 29.90 in Calm     95% 0.00 in 0 W/m2
07:30 55.4 °F 54.3 °F 29.90 in Calm     96% 0.00 in 14 W/m2
08:04 56.3 °F 55.2 °F 29.90 in Calm     96% 0.00 in 47 W/m2
08:09 56.4 °F 55.2 °F 29.90 in Calm     96% 0.00 in 60 W/m2
08:14 56.5 °F 55.4 °F 29.90 in Calm     96% 0.00 in 74 W/m2
08:19 56.8 °F 55.7 °F 29.91 in Calm     96% 0.00 in 74 W/m2
08:24 57 °F 55.9 °F 29.91 in Calm     96% 0.00 in 70 W/m2
08:29 57.3 °F 56.1 °F 29.91 in Calm     96% 0.00 in 60 W/m2
08:34 57.5 °F 56.4 °F 29.91 in Calm     96% 0.00 in 47 W/m2
08:39 57.7 °F 56.6 °F 29.91 in Calm     96% 0.00 in 56 W/m2
08:44 57.9 °F 56.8 °F 29.91 in Calm     96% 0.00 in 63 W/m2
08:49 58.1 °F 57 °F 29.91 in Calm     96% 0.00 in 63 W/m2
08:54 58.4 °F 57.3 °F 29.91 in Calm     96% 0.00 in 86 W/m2
08:59 58.8 °F 57.6 °F 29.91 in Calm   1 mph 96% 0.00 in 350 W/m2
09:04 59.3 °F 58.2 °F 29.91 in Calm   1 mph 96% 0.00 in 408 W/m2
09:09 60.4 °F 59.2 °F 29.91 in Calm     96% 0.00 in 485 W/m2
09:14 61.6 °F 60.4 °F 29.91 in Calm     96% 0.00 in 485 W/m2
09:19 62.5 °F 61.1 °F 29.91 in Calm     95.4% 0.00 in 287 W/m2
09:24 63.2 °F 61.2 °F 29.91 in Calm     93.1% 0.00 in 227 W/m2
09:29 63.9 °F 61.1 °F 29.91 in Calm     90.6% 0.00 in 473 W/m2
09:34 64.7 °F 61.3 °F 29.91 in Calm     88.8% 0.00 in 473 W/m2
09:39 65.8 °F 61.7 °F 29.91 in Calm   1 mph 86.8% 0.00 in 462 W/m2
09:44 67 °F 61.9 °F 29.91 in Calm   1 mph 83.6% 0.00 in 478 W/m2
09:49 68.2 °F 61.8 °F 29.91 in Calm   1 mph 80% 0.00 in 496 W/m2
09:54 69.3 °F 61.9 °F 29.91 in Calm   1 mph 77.4% 0.00 in 508 W/m2
09:59 70.4 °F 62.3 °F 29.90 in Calm   1 mph 75.6% 0.00 in 513 W/m2
10:04 71.2 °F 62 °F 29.90 in Calm   1 mph 72.7% 0.00 in 524 W/m2
10:09 72 °F 62.2 °F 29.90 in Calm     71.3% 0.00 in 533 W/m2
10:14 72.7 °F 62.4 °F 29.90 in Calm     70.1% 0.00 in 543 W/m2
10:19 73.4 °F 62.7 °F 29.90 in Calm     69.1% 0.00 in 554 W/m2
10:24 74.1 °F 62.4 °F 29.90 in Calm     66.9% 0.00 in 566 W/m2
10:29 74.6 °F 62.5 °F 29.90 in Calm     66% 0.00 in 577 W/m2
10:34 75.1 °F 62.3 °F 29.90 in Calm     64.5% 0.00 in 589 W/m2
10:39 75.4 °F 62.4 °F 29.90 in Calm     64% 0.00 in 596 W/m2
10:44 75.7 °F 62.3 °F 29.90 in North 0.1 mph 3 mph 63.1% 0.00 in 605 W/m2
10:48 75.9 °F 62.3 °F 29.90 in Calm   3 mph 62.7% 0.00 in 612 W/m2
11:00 76.5 °F 61.6 °F 29.89 in Calm   3 mph 60% 0.00 in 607 W/m2
11:30 76 °F 61.1 °F 29.89 in Calm   3 mph 60% 0.00 in 542 W/m2
12:04 75.2 °F 61.6 °F 29.89 in WSW 0.1 mph 3 mph 62.8% 0.00 in 542 W/m2
12:09 75.1 °F 61.9 °F 29.89 in Calm   1 mph 63.5% 0.00 in 179 W/m2
12:14 75.2 °F 61.3 °F 29.89 in Calm   1 mph 61.8% 0.00 in 281 W/m2
12:19 75.4 °F 61.7 °F 29.88 in WSW 0.2 mph 2 mph 62.4% 0.00 in 461 W/m2
12:24 75.6 °F 61.9 °F 29.88 in Calm   2 mph 62.5% 0.00 in 615 W/m2
12:29 75.8 °F 62 °F 29.88 in Calm   2 mph 62.2% 0.00 in 615 W/m2
12:34 76 °F 62 °F 29.88 in WSW 1 mph 4 mph 62% 0.00 in 132 W/m2
12:39 76.2 °F 62.4 °F 29.88 in WSW 0.5 mph 6 mph 62.3% 0.00 in 186 W/m2
12:44 76.3 °F 62.4 °F 29.88 in West 0.3 mph 6 mph 62% 0.00 in 244 W/m2
12:49 76.4 °F 63 °F 29.87 in West 0.3 mph 6 mph 63.3% 0.00 in 148 W/m2
12:54 76.4 °F 61.3 °F 29.87 in West 0.4 mph 6 mph 59.7% 0.00 in 158 W/m2
12:59 76.5 °F 60.6 °F 29.87 in West 0.8 mph 6 mph 58% 0.00 in 174 W/m2
13:04 76.6 °F 60.8 °F 29.87 in West 0.9 mph 7 mph 58.3% 0.00 in 710 W/m2
13:09 76.8 °F 61 °F 29.87 in West 0.2 mph 7 mph 58.2% 0.00 in 615 W/m2
13:14 77.1 °F 60.3 °F 29.86 in WSW 0.4 mph 7 mph 56.2% 0.00 in 339 W/m2
13:19 77.4 °F 59.2 °F 29.86 in SW 0.7 mph 7 mph 53.6% 0.00 in 156 W/m2
13:24 77.5 °F 59.9 °F 29.86 in WSW 0.5 mph 7 mph 54.7% 0.00 in 232 W/m2
13:29 77.4 °F 58.6 °F 29.86 in WSW 0.9 mph 7 mph 52.2% 0.00 in 91 W/m2
13:34 77.4 °F 58.6 °F 29.86 in WSW 0.3 mph 7 mph 52.5% 0.00 in 100 W/m2
13:39 77.3 °F 57.5 °F 29.85 in WSW 0.6 mph 5 mph 50.5% 0.00 in 160 W/m2
13:44 77.3 °F 55.8 °F 29.85 in WSW 0.5 mph 5 mph 47.5% 0.00 in 72 W/m2
13:49 77.2 °F 54 °F 29.85 in West 0.4 mph 5 mph 44.6% 0.00 in 54 W/m2
13:54 77.2 °F 54.6 °F 29.85 in WNW 1.2 mph 8 mph 45.6% 0.00 in 105 W/m2
13:59 77.1 °F 54 °F 29.85 in West 1.4 mph 11 mph 44.8% 0.00 in 100 W/m2
14:04 77 °F 54.1 °F 29.85 in WNW 1 mph 11 mph 45.1% 0.00 in 100 W/m2
14:09 77 °F 53.8 °F 29.85 in West 1.4 mph 11 mph 44.5% 0.00 in 62 W/m2
14:14 77 °F 53.7 °F 29.85 in Calm   11 mph 44.4% 0.00 in 63 W/m2
14:19 77.2 °F 54.8 °F 29.85 in WSW 0.5 mph 11 mph 46.1% 0.00 in 65 W/m2
14:24 77.3 °F 55.2 °F 29.85 in WSW 0.7 mph 11 mph 46.5% 0.00 in 84 W/m2
14:29 77.4 °F 54.9 °F 29.84 in WSW 0.9 mph 11 mph 45.8% 0.00 in 56 W/m2
14:34 77.4 °F 54.8 °F 29.84 in WSW 1.8 mph 11 mph 45.6% 0.00 in 56 W/m2
14:39 77.3 °F 53.3 °F 29.84 in SW 1.2 mph 11 mph 43.3% 0.00 in 100 W/m2
14:44 77.2 °F 53.9 °F 29.84 in SW 0.4 mph 11 mph 44.5% 0.00 in 378 W/m2
14:49 77.2 °F 54.2 °F 29.83 in WSW 0.6 mph 11 mph 44.9% 0.00 in 79 W/m2
14:54 77.1 °F 54.8 °F 29.83 in West 0.6 mph 11 mph 46% 0.00 in 49 W/m2
14:59 77.1 °F 55 °F 29.83 in WSW 0.1 mph 11 mph 46.4% 0.00 in 51 W/m2
15:04 77 °F 54.8 °F 29.83 in WSW 1 mph 11 mph 46.3% 0.00 in 54 W/m2
15:09 76.8 °F 54.7 °F 29.83 in SW 0.2 mph 9 mph 46.3% 0.00 in 63 W/m2
15:14 76.7 °F 55 °F 29.83 in WSW 1.5 mph 10 mph 47% 0.00 in 54 W/m2
15:19 76.7 °F 55.2 °F 29.83 in WSW 0.4 mph 10 mph 47.4% 0.00 in 58 W/m2
15:24 76.8 °F 55.5 °F 29.83 in WSW 0.2 mph 10 mph 47.9% 0.00 in 98 W/m2
15:29 76.9 °F 56 °F 29.83 in West 0.6 mph 10 mph 48.6% 0.00 in 77 W/m2
15:34 77 °F 56.3 °F 29.83 in West 0.1 mph 10 mph 48.9% 0.00 in 63 W/m2
15:39 77.1 °F 56.5 °F 29.83 in West 0.4 mph 5 mph 49.1% 0.00 in 63 W/m2
15:44 77 °F 56.4 °F 29.83 in WSW 0.9 mph 7 mph 48.9% 0.00 in 47 W/m2
15:49 77 °F 56.8 °F 29.83 in West 1.2 mph 10 mph 49.9% 0.00 in 70 W/m2
15:54 76.6 °F 56.6 °F 29.83 in West 1.4 mph 10 mph 50% 0.00 in 74 W/m2
15:59 76.3 °F 56.7 °F 29.83 in WSW 0.1 mph 10 mph 50.8% 0.00 in 70 W/m2
16:04 76 °F 57.1 °F 29.83 in Calm     52% 0.00 in 49 W/m2
16:09 76 °F 57.5 °F 29.83 in WNW 0.2 mph 5 mph 52.7% 0.00 in 62 W/m2
16:14 76 °F 57.7 °F 29.83 in WSW 1.5 mph 11 mph 53.1% 0.00 in 40 W/m2
16:19 75.9 °F 57.3 °F 29.84 in WSW 1.1 mph 11 mph 52.6% 0.00 in 63 W/m2
16:24 75.7 °F 57.3 °F 29.84 in Calm   11 mph 52.9% 0.00 in 62 W/m2
16:29 75.6 °F 57.8 °F 29.84 in West 0.9 mph 12 mph 53.9% 0.00 in 62 W/m2
16:34 75.5 °F 57.7 °F 29.84 in West 1.2 mph 12 mph 54% 0.00 in 58 W/m2
16:39 75.4 °F 58 °F 29.84 in WNW 0.1 mph 9 mph 54.7% 0.00 in 56 W/m2
16:44 75.3 °F 57.9 °F 29.84 in WSW 0.3 mph 9 mph 54.8% 0.00 in 58 W/m2
16:49 75.2 °F 58 °F 29.84 in WSW 0.5 mph 10 mph 55.1% 0.00 in 51 W/m2
16:54 75 °F 58.1 °F 29.84 in WSW 0.2 mph 10 mph 55.6% 0.00 in 46 W/m2
16:59 74.9 °F 58.2 °F 29.84 in WSW 0.1 mph 10 mph 56.1% 0.00 in 46 W/m2
17:04 74.7 °F 58.1 °F 29.84 in WSW 0.3 mph 10 mph 56.3% 0.00 in 62 W/m2
17:09 74.6 °F 57.8 °F 29.84 in West 0.5 mph 9 mph 56% 0.00 in 54 W/m2
17:14 74.4 °F 57.8 °F 29.84 in West 0.2 mph 9 mph 56.2% 0.00 in 35 W/m2
17:17 74.2 °F 57.9 °F 29.84 in Calm   9 mph 56.7% 0.00 in 30 W/m2
18:00 71 °F 57.8 °F 29.87 in WNW 1 mph 13 mph 63% 0.00 in 27 W/m2
19:00 65.6 °F 57.5 °F 29.90 in Calm   10 mph 75% 0.00 in 0 W/m2
19:30 64.3 °F 55.5 °F 29.92 in WNW 1 mph 15 mph 73% 0.00 in 0 W/m2
20:04 62.6 °F 54 °F 29.94 in NW 1.9 mph 14 mph 73.4% 0.00 in 0 W/m2
20:09 62.5 °F 54.1 °F 29.94 in NW 0.8 mph 14 mph 74% 0.00 in 0 W/m2
20:14 62.4 °F 54 °F 29.95 in NW 0.4 mph 14 mph 74% 0.00 in 0 W/m2
20:19 62.2 °F 53.9 °F 29.95 in NNW 0.2 mph 14 mph 74% 0.00 in 0 W/m2
20:24 62.1 °F 54 °F 29.95 in NNW 0.1 mph 14 mph 74.5% 0.00 in 0 W/m2
20:29 62 °F 53.9 °F 29.95 in NNW 0.5 mph 14 mph 74.7% 0.00 in 0 W/m2
20:34 61.8 °F 53.2 °F 29.95 in NNW 0.4 mph 14 mph 73.5% 0.00 in 0 W/m2
20:39 61.6 °F 52.8 °F 29.95 in NNW 0.1 mph 5 mph 73% 0.00 in 0 W/m2
20:44 61.4 °F 52.6 °F 29.96 in Calm   5 mph 73% 0.00 in 0 W/m2
20:49 61.1 °F 52.3 °F 29.96 in NNW 0.1 mph 5 mph 72.6% 0.00 in 0 W/m2
20:54 60.9 °F 52.1 °F 29.97 in NNW 0.4 mph 5 mph 72.9% 0.00 in 0 W/m2
20:59 60.7 °F 51.9 °F 29.97 in NW 0.4 mph 5 mph 72.8% 0.00 in 0 W/m2
21:04 60.5 °F 51.8 °F 29.97 in SSW 0.1 mph 5 mph 73% 0.00 in 0 W/m2
21:09 60.4 °F 51.7 °F 29.97 in Calm   1 mph 73% 0.00 in 0 W/m2
21:14 60.3 °F 51 °F 29.98 in West 0.2 mph 4 mph 71.5% 0.00 in 0 W/m2
21:19 60.1 °F 50.7 °F 29.98 in Calm   4 mph 71% 0.00 in 0 W/m2
21:24 60 °F 50.6 °F 29.98 in Calm   4 mph 71% 0.00 in 0 W/m2
21:29 59.8 °F 50 °F 29.98 in WNW 0.7 mph 6 mph 69.9% 0.00 in 0 W/m2
21:34 59.6 °F 49.4 °F 29.99 in WNW 0.3 mph 6 mph 69% 0.00 in 0 W/m2
21:39 59.5 °F 49.1 °F 29.99 in NW 0.5 mph 4 mph 68.6% 0.00 in 0 W/m2
21:44 59.2 °F 48.8 °F 29.99 in North 0.7 mph 8 mph 68.3% 0.00 in 0 W/m2
21:49 59 °F 48.8 °F 29.99 in NNW 1 mph 8 mph 68.8% 0.00 in 0 W/m2
21:54 58.8 °F 48.7 °F 29.99 in NNW 0.1 mph 8 mph 69.1% 0.00 in 0 W/m2
21:59 58.5 °F 48.5 °F 29.99 in NW 0.4 mph 8 mph 69.2% 0.00 in 0 W/m2
22:04 58.3 °F 48.4 °F 30.00 in Calm   8 mph 69.6% 0.00 in 0 W/m2
22:09 58.1 °F 48.4 °F 30.00 in Calm   1 mph 70% 0.00 in 0 W/m2
22:14 57.9 °F 48.2 °F 30.00 in Calm   1 mph 70% 0.00 in 0 W/m2
22:19 57.7 °F 48.2 °F 30.00 in Calm   1 mph 70.7% 0.00 in 0 W/m2
22:24 57.4 °F 48.1 °F 30.00 in NW 0.2 mph 3 mph 71% 0.00 in 0 W/m2
22:29 57.2 °F 48.1 °F 30.00 in WNW 0.5 mph 3 mph 71.5% 0.00 in 0 W/m2
22:34 56.9 °F 47.8 °F 30.00 in WNW 1.3 mph 10 mph 71.6% 0.00 in 0 W/m2
22:39 56.7 °F 47.2 °F 30.01 in NW 2 mph 11 mph 70.6% 0.00 in 0 W/m2
22:44 56.5 °F 46.8 °F 30.01 in NNW 0.1 mph 11 mph 70% 0.00 in 0 W/m2
22:49 56.3 °F 46.8 °F 30.00 in Calm   11 mph 70.2% 0.00 in 0 W/m2
22:51 56.2 °F 47 °F 30.01 in Calm   11 mph 71% 0.00 in 0 W/m2
23:00 55.8 °F 46.2 °F 30.01 in Calm   12 mph 70% 0.00 in 0 W/m2
23:30 54.8 °F 44.8 °F 30.01 in Calm   3 mph 69% 0.00 in 0 W/m2
Hartford County Weather
Compliments of Weather Underground - 4 mb